sensor_id;sensor_type;location;lat;lon;timestamp;P1;durP1;ratioP1;P2;durP2;ratioP2
11189;SDS011;5651;50.926;4.718;2022-09-03T00:04:59;4.97;;;3.03;;
11189;SDS011;5651;50.926;4.718;2022-09-03T00:13:16;4.15;;;2.83;;
11189;SDS011;5651;50.926;4.718;2022-09-03T00:15:47;5.87;;;2.80;;
11189;SDS011;5651;50.926;4.718;2022-09-03T00:18:19;4.85;;;2.92;;
11189;SDS011;5651;50.926;4.718;2022-09-03T00:20:54;4.47;;;3.00;;
11189;SDS011;5651;50.926;4.718;2022-09-03T00:23:25;7.53;;;4.15;;
11189;SDS011;5651;50.926;4.718;2022-09-03T00:25:58;5.00;;;3.00;;
11189;SDS011;5651;50.926;4.718;2022-09-03T00:28:39;5.45;;;3.10;;
11189;SDS011;5651;50.926;4.718;2022-09-03T00:31:13;8.05;;;2.92;;
11189;SDS011;5651;50.926;4.718;2022-09-03T00:33:46;4.40;;;2.95;;
11189;SDS011;5651;50.926;4.718;2022-09-03T00:36:18;6.22;;;3.00;;
11189;SDS011;5651;50.926;4.718;2022-09-03T00:38:49;5.37;;;2.80;;
11189;SDS011;5651;50.926;4.718;2022-09-03T00:52:12;4.30;;;2.97;;
11189;SDS011;5651;50.926;4.718;2022-09-03T00:57:46;4.70;;;3.33;;
11189;SDS011;5651;50.926;4.718;2022-09-03T01:00:19;4.03;;;3.30;;
11189;SDS011;5651;50.926;4.718;2022-09-03T01:05:33;5.10;;;3.15;;
11189;SDS011;5651;50.926;4.718;2022-09-03T01:14:09;4.15;;;3.13;;
11189;SDS011;5651;50.926;4.718;2022-09-03T01:16:38;6.35;;;3.72;;
11189;SDS011;5651;50.926;4.718;2022-09-03T01:22:31;8.00;;;3.72;;
11189;SDS011;5651;50.926;4.718;2022-09-03T01:30:19;5.50;;;2.80;;
11189;SDS011;5651;50.926;4.718;2022-09-03T01:38:00;2.75;;;2.50;;
11189;SDS011;5651;50.926;4.718;2022-09-03T01:49:02;3.58;;;2.58;;
11189;SDS011;5651;50.926;4.718;2022-09-03T01:51:36;3.83;;;2.63;;
11189;SDS011;5651;50.926;4.718;2022-09-03T01:56:59;4.85;;;2.85;;
11189;SDS011;5651;50.926;4.718;2022-09-03T02:00:04;5.22;;;2.55;;
11189;SDS011;5651;50.926;4.718;2022-09-03T02:02:38;3.75;;;2.63;;
11189;SDS011;5651;50.926;4.718;2022-09-03T02:10:10;3.90;;;2.70;;
11189;SDS011;5651;50.926;4.718;2022-09-03T02:12:38;6.40;;;3.17;;
11189;SDS011;5651;50.926;4.718;2022-09-03T02:15:12;4.20;;;3.22;;
11189;SDS011;5651;50.926;4.718;2022-09-03T02:17:41;3.47;;;2.67;;
11189;SDS011;5651;50.926;4.718;2022-09-03T02:20:09;4.00;;;2.60;;
11189;SDS011;5651;50.926;4.718;2022-09-03T02:22:40;4.57;;;3.10;;
11189;SDS011;5651;50.926;4.718;2022-09-03T02:25:08;3.83;;;2.40;;
11189;SDS011;5651;50.926;4.718;2022-09-03T02:27:36;6.22;;;2.72;;
11189;SDS011;5651;50.926;4.718;2022-09-03T02:30:05;5.55;;;2.85;;
11189;SDS011;5651;50.926;4.718;2022-09-03T02:32:32;3.33;;;2.50;;
11189;SDS011;5651;50.926;4.718;2022-09-03T02:34:57;4.05;;;2.67;;
11189;SDS011;5651;50.926;4.718;2022-09-03T02:37:24;5.70;;;2.75;;
11189;SDS011;5651;50.926;4.718;2022-09-03T02:39:50;3.08;;;2.78;;
11189;SDS011;5651;50.926;4.718;2022-09-03T02:42:16;4.80;;;2.92;;
11189;SDS011;5651;50.926;4.718;2022-09-03T02:44:43;3.70;;;2.30;;
11189;SDS011;5651;50.926;4.718;2022-09-03T02:47:14;3.97;;;2.88;;
11189;SDS011;5651;50.926;4.718;2022-09-03T02:49:40;4.95;;;3.25;;
11189;SDS011;5651;50.926;4.718;2022-09-03T02:52:08;4.95;;;2.78;;
11189;SDS011;5651;50.926;4.718;2022-09-03T02:54:36;3.70;;;2.80;;
11189;SDS011;5651;50.926;4.718;2022-09-03T02:57:05;2.92;;;2.63;;
11189;SDS011;5651;50.926;4.718;2022-09-03T02:59:35;3.20;;;2.72;;
11189;SDS011;5651;50.926;4.718;2022-09-03T03:02:01;4.30;;;2.40;;
11189;SDS011;5651;50.926;4.718;2022-09-03T03:04:31;4.20;;;2.53;;
11189;SDS011;5651;50.926;4.718;2022-09-03T03:06:57;3.78;;;2.65;;
11189;SDS011;5651;50.926;4.718;2022-09-03T03:09:23;3.60;;;2.28;;
11189;SDS011;5651;50.926;4.718;2022-09-03T03:11:49;6.90;;;2.83;;
11189;SDS011;5651;50.926;4.718;2022-09-03T03:14:16;3.13;;;2.50;;
11189;SDS011;5651;50.926;4.718;2022-09-03T03:16:43;3.40;;;2.53;;
11189;SDS011;5651;50.926;4.718;2022-09-03T03:19:09;5.20;;;2.40;;
11189;SDS011;5651;50.926;4.718;2022-09-03T03:21:35;4.38;;;2.63;;
11189;SDS011;5651;50.926;4.718;2022-09-03T03:24:01;4.90;;;2.60;;
11189;SDS011;5651;50.926;4.718;2022-09-03T03:26:27;4.85;;;2.70;;
11189;SDS011;5651;50.926;4.718;2022-09-03T03:28:56;5.22;;;2.47;;
11189;SDS011;5651;50.926;4.718;2022-09-03T03:31:25;3.13;;;2.38;;
11189;SDS011;5651;50.926;4.718;2022-09-03T03:33:52;4.53;;;2.15;;
11189;SDS011;5651;50.926;4.718;2022-09-03T03:36:20;3.55;;;2.50;;
11189;SDS011;5651;50.926;4.718;2022-09-03T03:38:47;4.50;;;2.83;;
11189;SDS011;5651;50.926;4.718;2022-09-03T03:41:15;5.70;;;2.60;;
11189;SDS011;5651;50.926;4.718;2022-09-03T03:43:43;3.30;;;2.78;;
11189;SDS011;5651;50.926;4.718;2022-09-03T03:46:09;5.68;;;2.30;;
11189;SDS011;5651;50.926;4.718;2022-09-03T03:48:36;7.72;;;2.65;;
11189;SDS011;5651;50.926;4.718;2022-09-03T03:51:04;5.97;;;3.13;;
11189;SDS011;5651;50.926;4.718;2022-09-03T03:53:32;4.50;;;2.83;;
11189;SDS011;5651;50.926;4.718;2022-09-03T03:56:00;2.63;;;2.42;;
11189;SDS011;5651;50.926;4.718;2022-09-03T03:58:28;3.63;;;2.80;;
11189;SDS011;5651;50.926;4.718;2022-09-03T04:01:02;4.15;;;2.70;;
11189;SDS011;5651;50.926;4.718;2022-09-03T04:03:38;4.32;;;2.70;;
11189;SDS011;5651;50.926;4.718;2022-09-03T04:06:04;7.00;;;3.10;;
11189;SDS011;5651;50.926;4.718;2022-09-03T04:08:33;2.88;;;2.55;;
11189;SDS011;5651;50.926;4.718;2022-09-03T04:11:01;3.58;;;3.00;;
11189;SDS011;5651;50.926;4.718;2022-09-03T04:13:33;5.45;;;2.97;;
11189;SDS011;5651;50.926;4.718;2022-09-03T04:16:03;3.35;;;2.88;;
11189;SDS011;5651;50.926;4.718;2022-09-03T04:18:32;3.70;;;3.35;;
11189;SDS011;5651;50.926;4.718;2022-09-03T04:21:00;5.70;;;2.88;;
11189;SDS011;5651;50.926;4.718;2022-09-03T04:23:29;3.85;;;2.80;;
11189;SDS011;5651;50.926;4.718;2022-09-03T04:25:56;5.10;;;2.50;;
11189;SDS011;5651;50.926;4.718;2022-09-03T04:28:21;3.10;;;2.38;;
11189;SDS011;5651;50.926;4.718;2022-09-03T04:30:47;3.65;;;2.58;;
11189;SDS011;5651;50.926;4.718;2022-09-03T04:33:13;6.93;;;2.92;;
11189;SDS011;5651;50.926;4.718;2022-09-03T04:35:39;4.63;;;3.20;;
11189;SDS011;5651;50.926;4.718;2022-09-03T04:38:05;4.47;;;2.45;;
11189;SDS011;5651;50.926;4.718;2022-09-03T04:40:32;5.25;;;2.60;;
11189;SDS011;5651;50.926;4.718;2022-09-03T04:42:58;3.28;;;2.60;;
11189;SDS011;5651;50.926;4.718;2022-09-03T04:45:25;4.05;;;2.50;;
11189;SDS011;5651;50.926;4.718;2022-09-03T04:47:59;5.72;;;2.97;;
11189;SDS011;5651;50.926;4.718;2022-09-03T04:50:29;2.45;;;2.25;;
11189;SDS011;5651;50.926;4.718;2022-09-03T04:53:01;3.30;;;2.80;;
11189;SDS011;5651;50.926;4.718;2022-09-03T04:55:32;4.25;;;2.90;;
11189;SDS011;5651;50.926;4.718;2022-09-03T04:58:02;4.03;;;2.67;;
11189;SDS011;5651;50.926;4.718;2022-09-03T05:00:29;3.85;;;2.45;;
11189;SDS011;5651;50.926;4.718;2022-09-03T05:02:58;3.90;;;2.58;;
11189;SDS011;5651;50.926;4.718;2022-09-03T05:05:25;3.38;;;2.78;;
11189;SDS011;5651;50.926;4.718;2022-09-03T05:07:50;3.28;;;2.53;;
11189;SDS011;5651;50.926;4.718;2022-09-03T05:10:17;3.85;;;2.67;;
11189;SDS011;5651;50.926;4.718;2022-09-03T05:12:58;3.17;;;2.40;;
11189;SDS011;5651;50.926;4.718;2022-09-03T05:15:28;3.83;;;2.70;;
11189;SDS011;5651;50.926;4.718;2022-09-03T05:17:58;4.47;;;2.50;;
11189;SDS011;5651;50.926;4.718;2022-09-03T05:20:26;4.97;;;2.53;;
11189;SDS011;5651;50.926;4.718;2022-09-03T05:22:54;3.88;;;2.15;;
11189;SDS011;5651;50.926;4.718;2022-09-03T05:25:22;3.67;;;2.70;;
11189;SDS011;5651;50.926;4.718;2022-09-03T05:27:48;5.95;;;2.58;;
11189;SDS011;5651;50.926;4.718;2022-09-03T05:30:14;4.70;;;2.50;;
11189;SDS011;5651;50.926;4.718;2022-09-03T05:32:40;6.80;;;2.92;;
11189;SDS011;5651;50.926;4.718;2022-09-03T05:35:07;3.75;;;2.75;;
11189;SDS011;5651;50.926;4.718;2022-09-03T05:37:35;5.90;;;2.60;;
11189;SDS011;5651;50.926;4.718;2022-09-03T05:40:01;6.20;;;2.70;;
11189;SDS011;5651;50.926;4.718;2022-09-03T05:42:28;4.93;;;2.60;;
11189;SDS011;5651;50.926;4.718;2022-09-03T05:44:55;5.65;;;2.72;;
11189;SDS011;5651;50.926;4.718;2022-09-03T05:47:21;5.18;;;2.50;;
11189;SDS011;5651;50.926;4.718;2022-09-03T05:49:47;11.25;;;4.90;;
11189;SDS011;5651;50.926;4.718;2022-09-03T05:52:13;4.28;;;2.58;;
11189;SDS011;5651;50.926;4.718;2022-09-03T05:54:38;3.80;;;2.63;;
11189;SDS011;5651;50.926;4.718;2022-09-03T05:57:04;4.10;;;2.53;;
11189;SDS011;5651;50.926;4.718;2022-09-03T05:59:30;3.55;;;2.88;;
11189;SDS011;5651;50.926;4.718;2022-09-03T06:01:55;3.88;;;2.47;;
11189;SDS011;5651;50.926;4.718;2022-09-03T06:04:21;7.63;;;2.60;;
11189;SDS011;5651;50.926;4.718;2022-09-03T06:06:47;6.00;;;2.85;;
11189;SDS011;5651;50.926;4.718;2022-09-03T06:09:14;10.82;;;2.92;;
11189;SDS011;5651;50.926;4.718;2022-09-03T06:11:42;5.13;;;2.88;;
11189;SDS011;5651;50.926;4.718;2022-09-03T06:14:09;6.57;;;3.25;;
11189;SDS011;5651;50.926;4.718;2022-09-03T06:16:38;5.57;;;2.90;;
11189;SDS011;5651;50.926;4.718;2022-09-03T06:19:05;5.50;;;3.22;;
11189;SDS011;5651;50.926;4.718;2022-09-03T06:21:38;5.32;;;2.40;;
11189;SDS011;5651;50.926;4.718;2022-09-03T06:24:11;3.92;;;2.67;;
11189;SDS011;5651;50.926;4.718;2022-09-03T06:26:39;3.00;;;2.50;;
11189;SDS011;5651;50.926;4.718;2022-09-03T06:29:05;5.75;;;2.50;;
11189;SDS011;5651;50.926;4.718;2022-09-03T06:31:30;5.63;;;2.58;;
11189;SDS011;5651;50.926;4.718;2022-09-03T06:33:56;6.93;;;2.67;;
11189;SDS011;5651;50.926;4.718;2022-09-03T06:36:23;2.67;;;2.40;;
11189;SDS011;5651;50.926;4.718;2022-09-03T06:38:51;6.10;;;2.72;;
11189;SDS011;5651;50.926;4.718;2022-09-03T06:41:19;5.00;;;2.75;;
11189;SDS011;5651;50.926;4.718;2022-09-03T06:43:53;5.90;;;2.80;;
11189;SDS011;5651;50.926;4.718;2022-09-03T06:46:36;6.82;;;2.78;;
11189;SDS011;5651;50.926;4.718;2022-09-03T06:49:03;4.85;;;2.65;;
11189;SDS011;5651;50.926;4.718;2022-09-03T06:51:30;5.45;;;2.97;;
11189;SDS011;5651;50.926;4.718;2022-09-03T06:54:01;6.88;;;2.80;;
11189;SDS011;5651;50.926;4.718;2022-09-03T06:56:31;5.30;;;2.72;;
11189;SDS011;5651;50.926;4.718;2022-09-03T06:58:59;4.53;;;2.78;;
11189;SDS011;5651;50.926;4.718;2022-09-03T07:01:29;4.07;;;3.00;;
11189;SDS011;5651;50.926;4.718;2022-09-03T07:04:01;6.38;;;2.88;;
11189;SDS011;5651;50.926;4.718;2022-09-03T07:06:29;5.65;;;2.45;;
11189;SDS011;5651;50.926;4.718;2022-09-03T07:08:56;7.28;;;3.20;;
11189;SDS011;5651;50.926;4.718;2022-09-03T07:11:25;6.75;;;3.08;;
11189;SDS011;5651;50.926;4.718;2022-09-03T07:13:53;5.07;;;3.28;;
11189;SDS011;5651;50.926;4.718;2022-09-03T07:16:21;7.93;;;3.13;;
11189;SDS011;5651;50.926;4.718;2022-09-03T07:18:48;5.68;;;3.10;;
11189;SDS011;5651;50.926;4.718;2022-09-03T07:21:19;5.80;;;2.78;;
11189;SDS011;5651;50.926;4.718;2022-09-03T07:23:46;11.32;;;2.90;;
11189;SDS011;5651;50.926;4.718;2022-09-03T07:26:14;5.78;;;3.65;;
11189;SDS011;5651;50.926;4.718;2022-09-03T07:28:42;3.80;;;2.72;;
11189;SDS011;5651;50.926;4.718;2022-09-03T07:31:14;5.40;;;2.65;;
11189;SDS011;5651;50.926;4.718;2022-09-03T07:33:46;6.50;;;2.92;;
11189;SDS011;5651;50.926;4.718;2022-09-03T07:36:14;7.25;;;2.65;;
11189;SDS011;5651;50.926;4.718;2022-09-03T07:38:41;10.13;;;3.22;;
11189;SDS011;5651;50.926;4.718;2022-09-03T07:41:11;5.22;;;2.50;;
11189;SDS011;5651;50.926;4.718;2022-09-03T07:43:39;5.78;;;2.83;;
11189;SDS011;5651;50.926;4.718;2022-09-03T07:46:15;2.97;;;2.42;;
11189;SDS011;5651;50.926;4.718;2022-09-03T07:48:48;5.10;;;2.50;;
11189;SDS011;5651;50.926;4.718;2022-09-03T07:51:15;5.63;;;3.03;;
11189;SDS011;5651;50.926;4.718;2022-09-03T07:53:42;6.03;;;3.00;;
11189;SDS011;5651;50.926;4.718;2022-09-03T07:56:12;3.78;;;2.53;;
11189;SDS011;5651;50.926;4.718;2022-09-03T07:58:40;9.18;;;2.45;;
11189;SDS011;5651;50.926;4.718;2022-09-03T08:01:11;5.07;;;2.53;;
11189;SDS011;5651;50.926;4.718;2022-09-03T08:03:41;8.35;;;3.13;;
11189;SDS011;5651;50.926;4.718;2022-09-03T08:06:07;5.85;;;3.03;;
11189;SDS011;5651;50.926;4.718;2022-09-03T08:08:37;5.60;;;2.60;;
11189;SDS011;5651;50.926;4.718;2022-09-03T08:13:42;6.05;;;2.92;;
11189;SDS011;5651;50.926;4.718;2022-09-03T08:16:10;4.28;;;2.70;;
11189;SDS011;5651;50.926;4.718;2022-09-03T08:18:38;6.72;;;2.58;;
11189;SDS011;5651;50.926;4.718;2022-09-03T08:21:05;6.18;;;3.28;;
11189;SDS011;5651;50.926;4.718;2022-09-03T08:23:35;3.67;;;2.67;;
11189;SDS011;5651;50.926;4.718;2022-09-03T08:26:02;6.20;;;2.97;;
11189;SDS011;5651;50.926;4.718;2022-09-03T08:28:28;7.90;;;3.13;;
11189;SDS011;5651;50.926;4.718;2022-09-03T08:30:54;7.63;;;3.38;;
11189;SDS011;5651;50.926;4.718;2022-09-03T08:33:20;5.13;;;2.95;;
11189;SDS011;5651;50.926;4.718;2022-09-03T08:36:05;7.43;;;2.60;;
11189;SDS011;5651;50.926;4.718;2022-09-03T08:38:34;4.28;;;2.63;;
11189;SDS011;5651;50.926;4.718;2022-09-03T08:41:04;11.82;;;3.08;;
11189;SDS011;5651;50.926;4.718;2022-09-03T08:46:24;5.82;;;3.25;;
11189;SDS011;5651;50.926;4.718;2022-09-03T08:49:02;9.15;;;3.53;;
11189;SDS011;5651;50.926;4.718;2022-09-03T08:51:29;11.75;;;3.67;;
11189;SDS011;5651;50.926;4.718;2022-09-03T08:53:58;9.82;;;3.50;;
11189;SDS011;5651;50.926;4.718;2022-09-03T08:56:26;5.68;;;3.13;;
11189;SDS011;5651;50.926;4.718;2022-09-03T08:58:53;6.82;;;3.40;;
11189;SDS011;5651;50.926;4.718;2022-09-03T09:04:29;4.57;;;3.13;;
11189;SDS011;5651;50.926;4.718;2022-09-03T09:09:40;8.30;;;3.70;;
11189;SDS011;5651;50.926;4.718;2022-09-03T09:12:28;6.40;;;3.25;;
11189;SDS011;5651;50.926;4.718;2022-09-03T09:15:12;3.30;;;2.80;;
11189;SDS011;5651;50.926;4.718;2022-09-03T09:23:10;9.27;;;3.17;;
11189;SDS011;5651;50.926;4.718;2022-09-03T09:25:43;7.90;;;3.40;;
11189;SDS011;5651;50.926;4.718;2022-09-03T09:28:19;8.52;;;3.72;;
11189;SDS011;5651;50.926;4.718;2022-09-03T09:30:47;5.55;;;3.63;;
11189;SDS011;5651;50.926;4.718;2022-09-03T09:33:16;7.20;;;3.63;;
11189;SDS011;5651;50.926;4.718;2022-09-03T09:35:43;5.43;;;3.42;;
11189;SDS011;5651;50.926;4.718;2022-09-03T09:38:10;7.55;;;3.33;;
11189;SDS011;5651;50.926;4.718;2022-09-03T09:40:37;7.28;;;3.75;;
11189;SDS011;5651;50.926;4.718;2022-09-03T09:43:07;6.78;;;3.50;;
11189;SDS011;5651;50.926;4.718;2022-09-03T09:45:35;8.70;;;3.50;;
11189;SDS011;5651;50.926;4.718;2022-09-03T09:48:14;6.00;;;3.65;;
11189;SDS011;5651;50.926;4.718;2022-09-03T09:50:42;6.63;;;3.20;;
11189;SDS011;5651;50.926;4.718;2022-09-03T09:53:08;7.95;;;3.70;;
11189;SDS011;5651;50.926;4.718;2022-09-03T09:55:49;3.78;;;3.33;;
11189;SDS011;5651;50.926;4.718;2022-09-03T09:58:17;5.13;;;3.55;;
11189;SDS011;5651;50.926;4.718;2022-09-03T10:00:53;8.48;;;3.67;;
11189;SDS011;5651;50.926;4.718;2022-09-03T10:03:29;5.55;;;3.65;;
11189;SDS011;5651;50.926;4.718;2022-09-03T10:06:01;6.10;;;4.10;;
11189;SDS011;5651;50.926;4.718;2022-09-03T10:08:49;8.85;;;4.10;;
11189;SDS011;5651;50.926;4.718;2022-09-03T10:11:15;5.07;;;3.92;;
11189;SDS011;5651;50.926;4.718;2022-09-03T10:13:44;5.57;;;3.72;;
11189;SDS011;5651;50.926;4.718;2022-09-03T10:16:23;6.15;;;3.63;;
11189;SDS011;5651;50.926;4.718;2022-09-03T10:18:56;7.65;;;4.63;;
11189;SDS011;5651;50.926;4.718;2022-09-03T10:26:40;5.15;;;3.67;;
11189;SDS011;5651;50.926;4.718;2022-09-03T10:29:07;6.97;;;4.45;;
11189;SDS011;5651;50.926;4.718;2022-09-03T10:42:26;7.20;;;4.00;;
11189;SDS011;5651;50.926;4.718;2022-09-03T10:45:04;6.97;;;3.47;;
11189;SDS011;5651;50.926;4.718;2022-09-03T10:48:00;6.65;;;3.78;;
11189;SDS011;5651;50.926;4.718;2022-09-03T10:53:12;8.43;;;3.57;;
11189;SDS011;5651;50.926;4.718;2022-09-03T11:01:13;5.80;;;3.45;;
11189;SDS011;5651;50.926;4.718;2022-09-03T11:07:00;6.10;;;4.10;;
11189;SDS011;5651;50.926;4.718;2022-09-03T11:12:19;4.55;;;4.03;;
11189;SDS011;5651;50.926;4.718;2022-09-03T11:15:03;6.22;;;4.18;;
11189;SDS011;5651;50.926;4.718;2022-09-03T11:17:40;5.90;;;4.20;;
11189;SDS011;5651;50.926;4.718;2022-09-03T11:22:43;7.55;;;3.97;;
11189;SDS011;5651;50.926;4.718;2022-09-03T11:25:11;5.68;;;3.88;;
11189;SDS011;5651;50.926;4.718;2022-09-03T11:30:08;6.82;;;4.10;;
11189;SDS011;5651;50.926;4.718;2022-09-03T11:32:49;7.32;;;4.47;;
11189;SDS011;5651;50.926;4.718;2022-09-03T11:37:59;8.23;;;4.30;;
11189;SDS011;5651;50.926;4.718;2022-09-03T11:40:33;5.97;;;3.92;;
11189;SDS011;5651;50.926;4.718;2022-09-03T11:43:11;5.15;;;3.78;;
11189;SDS011;5651;50.926;4.718;2022-09-03T11:46:33;6.57;;;4.35;;
11189;SDS011;5651;50.926;4.718;2022-09-03T11:48:46;6.68;;;3.45;;
11189;SDS011;5651;50.926;4.718;2022-09-03T11:53:58;9.07;;;5.68;;
11189;SDS011;5651;50.926;4.718;2022-09-03T11:56:45;8.27;;;5.43;;
11189;SDS011;5651;50.926;4.718;2022-09-03T11:59:18;6.28;;;4.60;;
11189;SDS011;5651;50.926;4.718;2022-09-03T12:04:21;7.03;;;4.23;;
11189;SDS011;5651;50.926;4.718;2022-09-03T12:12:35;6.20;;;4.53;;
11189;SDS011;5651;50.926;4.718;2022-09-03T12:15:05;4.55;;;3.95;;
11189;SDS011;5651;50.926;4.718;2022-09-03T12:21:00;7.00;;;3.95;;
11189;SDS011;5651;50.926;4.718;2022-09-03T12:25:54;7.07;;;4.40;;
11189;SDS011;5651;50.926;4.718;2022-09-03T12:28:23;5.50;;;4.40;;
11189;SDS011;5651;50.926;4.718;2022-09-03T12:30:52;6.47;;;4.00;;
11189;SDS011;5651;50.926;4.718;2022-09-03T12:33:19;5.95;;;4.13;;
11189;SDS011;5651;50.926;4.718;2022-09-03T12:35:59;6.55;;;3.83;;
11189;SDS011;5651;50.926;4.718;2022-09-03T12:38:26;5.80;;;3.83;;
11189;SDS011;5651;50.926;4.718;2022-09-03T12:40:58;5.97;;;4.13;;
11189;SDS011;5651;50.926;4.718;2022-09-03T12:43:27;7.18;;;4.25;;
11189;SDS011;5651;50.926;4.718;2022-09-03T12:45:54;4.75;;;3.45;;
11189;SDS011;5651;50.926;4.718;2022-09-03T12:48:20;5.35;;;4.43;;
11189;SDS011;5651;50.926;4.718;2022-09-03T12:50:46;4.78;;;3.90;;
11189;SDS011;5651;50.926;4.718;2022-09-03T12:53:20;6.60;;;4.03;;
11189;SDS011;5651;50.926;4.718;2022-09-03T12:55:52;4.72;;;3.85;;
11189;SDS011;5651;50.926;4.718;2022-09-03T12:58:27;5.45;;;4.10;;
11189;SDS011;5651;50.926;4.718;2022-09-03T13:01:13;5.50;;;3.70;;
11189;SDS011;5651;50.926;4.718;2022-09-03T13:04:00;6.15;;;3.63;;
11189;SDS011;5651;50.926;4.718;2022-09-03T13:09:36;10.43;;;3.78;;
11189;SDS011;5651;50.926;4.718;2022-09-03T13:12:04;5.10;;;3.25;;
11189;SDS011;5651;50.926;4.718;2022-09-03T13:14:42;5.22;;;3.30;;
11189;SDS011;5651;50.926;4.718;2022-09-03T13:22:56;4.32;;;3.33;;
11189;SDS011;5651;50.926;4.718;2022-09-03T13:31:33;3.67;;;2.88;;
11189;SDS011;5651;50.926;4.718;2022-09-03T13:34:07;3.72;;;3.03;;
11189;SDS011;5651;50.926;4.718;2022-09-03T13:36:48;4.72;;;2.92;;
11189;SDS011;5651;50.926;4.718;2022-09-03T13:39:23;8.32;;;3.00;;
11189;SDS011;5651;50.926;4.718;2022-09-03T13:42:36;5.55;;;3.00;;
11189;SDS011;5651;50.926;4.718;2022-09-03T13:44:51;4.75;;;3.20;;
11189;SDS011;5651;50.926;4.718;2022-09-03T13:53:13;4.55;;;3.10;;
11189;SDS011;5651;50.926;4.718;2022-09-03T13:55:46;5.28;;;3.10;;
11189;SDS011;5651;50.926;4.718;2022-09-03T14:01:20;5.75;;;3.53;;
11189;SDS011;5651;50.926;4.718;2022-09-03T14:03:52;4.28;;;3.22;;
11189;SDS011;5651;50.926;4.718;2022-09-03T14:11:34;4.88;;;3.38;;
11189;SDS011;5651;50.926;4.718;2022-09-03T14:22:13;6.68;;;3.40;;
11189;SDS011;5651;50.926;4.718;2022-09-03T14:24:48;5.22;;;3.42;;
11189;SDS011;5651;50.926;4.718;2022-09-03T14:27:22;5.68;;;4.35;;
11189;SDS011;5651;50.926;4.718;2022-09-03T14:29:53;7.97;;;4.13;;
11189;SDS011;5651;50.926;4.718;2022-09-03T14:32:58;4.82;;;4.10;;
11189;SDS011;5651;50.926;4.718;2022-09-03T14:35:34;7.88;;;3.70;;
11189;SDS011;5651;50.926;4.718;2022-09-03T14:49:34;4.95;;;3.33;;
11189;SDS011;5651;50.926;4.718;2022-09-03T14:52:21;4.63;;;3.60;;
11189;SDS011;5651;50.926;4.718;2022-09-03T14:55:10;3.92;;;3.53;;
11189;SDS011;5651;50.926;4.718;2022-09-03T14:57:58;6.95;;;3.30;;
11189;SDS011;5651;50.926;4.718;2022-09-03T15:00:49;3.92;;;3.08;;
11189;SDS011;5651;50.926;4.718;2022-09-03T15:11:28;5.22;;;3.30;;
11189;SDS011;5651;50.926;4.718;2022-09-03T15:14:00;3.45;;;3.03;;
11189;SDS011;5651;50.926;4.718;2022-09-03T15:16:42;3.78;;;3.35;;
11189;SDS011;5651;50.926;4.718;2022-09-03T15:19:15;3.25;;;2.95;;
11189;SDS011;5651;50.926;4.718;2022-09-03T15:24:42;4.85;;;3.30;;
11189;SDS011;5651;50.926;4.718;2022-09-03T15:27:36;3.78;;;3.30;;
11189;SDS011;5651;50.926;4.718;2022-09-03T15:30:24;6.30;;;3.30;;
11189;SDS011;5651;50.926;4.718;2022-09-03T15:33:10;6.97;;;3.38;;
11189;SDS011;5651;50.926;4.718;2022-09-03T15:35:58;4.50;;;3.30;;
11189;SDS011;5651;50.926;4.718;2022-09-03T15:44:17;6.85;;;3.42;;
11189;SDS011;5651;50.926;4.718;2022-09-03T15:46:55;4.43;;;3.15;;
11189;SDS011;5651;50.926;4.718;2022-09-03T15:52:14;7.07;;;3.72;;
11189;SDS011;5651;50.926;4.718;2022-09-03T15:57:25;4.07;;;3.20;;
11189;SDS011;5651;50.926;4.718;2022-09-03T16:00:01;5.53;;;3.80;;
11189;SDS011;5651;50.926;4.718;2022-09-03T16:02:33;5.45;;;3.60;;
11189;SDS011;5651;50.926;4.718;2022-09-03T16:10:59;8.38;;;3.45;;
11189;SDS011;5651;50.926;4.718;2022-09-03T16:13:48;4.35;;;3.40;;
11189;SDS011;5651;50.926;4.718;2022-09-03T16:16:23;4.65;;;3.60;;
11189;SDS011;5651;50.926;4.718;2022-09-03T16:21:31;4.45;;;3.53;;
11189;SDS011;5651;50.926;4.718;2022-09-03T16:24:08;4.40;;;3.40;;
11189;SDS011;5651;50.926;4.718;2022-09-03T16:26:47;5.25;;;3.25;;
11189;SDS011;5651;50.926;4.718;2022-09-03T16:29:20;5.90;;;3.80;;
11189;SDS011;5651;50.926;4.718;2022-09-03T16:35:13;6.53;;;3.50;;
11189;SDS011;5651;50.926;4.718;2022-09-03T16:37:55;7.63;;;5.80;;
11189;SDS011;5651;50.926;4.718;2022-09-03T16:40:35;11.23;;;4.28;;
11189;SDS011;5651;50.926;4.718;2022-09-03T16:54:22;5.85;;;2.80;;
11189;SDS011;5651;50.926;4.718;2022-09-03T16:57:08;3.70;;;1.98;;
11189;SDS011;5651;50.926;4.718;2022-09-03T17:05:13;3.72;;;1.90;;
11189;SDS011;5651;50.926;4.718;2022-09-03T17:26:33;5.85;;;2.40;;
11189;SDS011;5651;50.926;4.718;2022-09-03T17:32:11;4.18;;;2.55;;
11189;SDS011;5651;50.926;4.718;2022-09-03T17:48:51;5.43;;;3.85;;
11189;SDS011;5651;50.926;4.718;2022-09-03T17:51:32;8.35;;;3.85;;
11189;SDS011;5651;50.926;4.718;2022-09-03T17:59:50;6.65;;;3.55;;
11189;SDS011;5651;50.926;4.718;2022-09-03T18:01:51;6.20;;;3.38;;
11189;SDS011;5651;50.926;4.718;2022-09-03T18:07:05;5.30;;;3.85;;
11189;SDS011;5651;50.926;4.718;2022-09-03T18:12:13;8.38;;;4.63;;
11189;SDS011;5651;50.926;4.718;2022-09-03T18:17:38;6.47;;;3.88;;
11189;SDS011;5651;50.926;4.718;2022-09-03T18:20:16;4.65;;;3.22;;
11189;SDS011;5651;50.926;4.718;2022-09-03T18:23:01;6.10;;;3.10;;
11189;SDS011;5651;50.926;4.718;2022-09-03T18:25:54;4.88;;;3.83;;
11189;SDS011;5651;50.926;4.718;2022-09-03T18:31:26;6.68;;;3.78;;
11189;SDS011;5651;50.926;4.718;2022-09-03T18:34:10;5.28;;;3.08;;
11189;SDS011;5651;50.926;4.718;2022-09-03T18:36:58;5.60;;;3.70;;
11189;SDS011;5651;50.926;4.718;2022-09-03T18:39:45;6.53;;;3.50;;
11189;SDS011;5651;50.926;4.718;2022-09-03T18:52:10;6.47;;;4.25;;
11189;SDS011;5651;50.926;4.718;2022-09-03T19:00:53;7.53;;;4.75;;
11189;SDS011;5651;50.926;4.718;2022-09-03T19:07:18;8.47;;;5.10;;
11189;SDS011;5651;50.926;4.718;2022-09-03T19:10:18;8.82;;;4.80;;
11189;SDS011;5651;50.926;4.718;2022-09-03T19:13:32;10.07;;;5.53;;
11189;SDS011;5651;50.926;4.718;2022-09-03T19:16:20;10.43;;;4.95;;
11189;SDS011;5651;50.926;4.718;2022-09-03T19:22:37;7.90;;;5.00;;
11189;SDS011;5651;50.926;4.718;2022-09-03T19:25:24;7.82;;;5.30;;
11189;SDS011;5651;50.926;4.718;2022-09-03T19:31:46;7.05;;;4.53;;
11189;SDS011;5651;50.926;4.718;2022-09-03T19:40:45;8.68;;;5.20;;
11189;SDS011;5651;50.926;4.718;2022-09-03T19:46:56;7.20;;;4.72;;
11189;SDS011;5651;50.926;4.718;2022-09-03T19:52:53;8.77;;;5.73;;
11189;SDS011;5651;50.926;4.718;2022-09-03T19:55:43;7.97;;;5.07;;
11189;SDS011;5651;50.926;4.718;2022-09-03T19:58:30;7.00;;;5.28;;
11189;SDS011;5651;50.926;4.718;2022-09-03T20:01:16;6.75;;;4.57;;
11189;SDS011;5651;50.926;4.718;2022-09-03T20:04:12;7.10;;;5.53;;
11189;SDS011;5651;50.926;4.718;2022-09-03T20:07:02;6.28;;;4.30;;
11189;SDS011;5651;50.926;4.718;2022-09-03T20:12:37;6.97;;;5.38;;
11189;SDS011;5651;50.926;4.718;2022-09-03T20:15:07;7.95;;;5.75;;
11189;SDS011;5651;50.926;4.718;2022-09-03T20:34:37;9.05;;;7.57;;
11189;SDS011;5651;50.926;4.718;2022-09-03T20:48:25;10.07;;;7.57;;
11189;SDS011;5651;50.926;4.718;2022-09-03T20:56:26;9.88;;;7.90;;
11189;SDS011;5651;50.926;4.718;2022-09-03T21:04:24;12.68;;;8.18;;
11189;SDS011;5651;50.926;4.718;2022-09-03T21:10:35;8.90;;;6.90;;
11189;SDS011;5651;50.926;4.718;2022-09-03T21:24:20;11.90;;;7.20;;
11189;SDS011;5651;50.926;4.718;2022-09-03T21:26:52;10.65;;;6.97;;
11189;SDS011;5651;50.926;4.718;2022-09-03T21:29:28;10.38;;;6.88;;
11189;SDS011;5651;50.926;4.718;2022-09-03T21:32:07;9.60;;;7.22;;
11189;SDS011;5651;50.926;4.718;2022-09-03T21:37:22;9.85;;;6.80;;
11189;SDS011;5651;50.926;4.718;2022-09-03T21:39:52;8.15;;;6.50;;
11189;SDS011;5651;50.926;4.718;2022-09-03T21:45:24;12.73;;;7.30;;
11189;SDS011;5651;50.926;4.718;2022-09-03T21:48:00;11.13;;;7.25;;
11189;SDS011;5651;50.926;4.718;2022-09-03T21:50:38;8.27;;;6.85;;
11189;SDS011;5651;50.926;4.718;2022-09-03T21:53:19;8.60;;;6.32;;
11189;SDS011;5651;50.926;4.718;2022-09-03T22:01:08;12.68;;;7.45;;
11189;SDS011;5651;50.926;4.718;2022-09-03T22:03:40;8.52;;;6.72;;
11189;SDS011;5651;50.926;4.718;2022-09-03T22:06:09;10.75;;;7.20;;